Time;durP1;ratioP1;P1;durP2;ratioP2;P2;SDS_P1;SDS_P2;PMS_P1;PMS_P2;Temp;Humidity;BMP_temperature;BMP_pressure;BME280_temperature;BME280_humidity;BME280_pressure;Samples;Min_cycle;Max_cycle;Signal;HPM_P1;HPM_P2
2022/09/13 00:00:29;;;;;;;5.37;3.17;;;21.80;1.00;;;;;;4959668;28;20191;-91
2022/09/13 00:02:54;;;;;;;6.97;3.60;;;21.90;1.00;;;;;;4976908;28;20185;-94
2022/09/13 00:05:20;;;;;;;7.37;3.30;;;21.70;1.00;;;;;;4976871;28;20204;-92
2022/09/13 00:07:45;;;;;;;4.73;3.00;;;21.50;1.00;;;;;;4959313;28;20192;-93
2022/09/13 00:10:11;;;;;;;5.67;3.10;;;21.50;1.00;;;;;;4959030;28;20192;-93
2022/09/13 00:12:37;;;;;;;7.53;3.67;;;21.50;1.00;;;;;;4959030;28;20221;-93
2022/09/13 00:15:03;;;;;;;5.07;3.30;;;21.50;1.00;;;;;;4959116;28;20196;-92
2022/09/13 00:17:28;;;;;;;4.20;2.70;;;21.40;1.00;;;;;;4976363;28;20181;-93
2022/09/13 00:19:54;;;;;;;5.97;3.00;;;21.40;1.00;;;;;;4959282;28;20211;-94
2022/09/13 00:22:20;;;;;;;5.77;3.60;;;21.40;1.00;;;;;;4959669;28;20194;-93
2022/09/13 00:24:45;;;;;;;5.13;3.27;;;21.50;1.00;;;;;;4958658;28;20192;-93
2022/09/13 00:27:12;;;;;;;4.07;2.90;;;21.40;1.00;;;;;;4959331;28;20659;-93
2022/09/13 00:29:38;;;;;;;5.77;3.20;;;21.50;1.00;;;;;;4962061;28;20186;-92
2022/09/13 00:32:04;;;;;;;4.57;2.80;;;21.60;1.00;;;;;;4962420;28;20200;-94
2022/09/13 00:34:30;;;;;;;4.53;3.20;;;21.60;1.00;;;;;;4962477;28;20296;-91
2022/09/13 00:36:55;;;;;;;6.23;3.27;;;21.60;1.00;;;;;;4961926;28;20182;-93
2022/09/13 00:39:21;;;;;;;6.47;3.30;;;21.60;1.00;;;;;;4962075;28;20665;-92
2022/09/13 00:41:47;;;;;;;6.60;3.57;;;21.70;1.00;;;;;;4960818;28;20194;-92
2022/09/13 00:45:02;;;;;;;6.00;3.60;;;21.80;1.00;;;;;;4962952;28;20192;-92
2022/09/13 00:47:40;;;;;;;5.70;3.77;;;21.80;1.00;;;;;;4941299;28;20236;-93
2022/09/13 00:50:19;;;;;;;6.23;3.73;;;21.80;1.00;;;;;;4961458;28;20189;-92
2022/09/13 00:52:53;;;;;;;5.30;3.57;;;21.70;1.00;;;;;;4961594;28;20217;-93
2022/09/13 00:55:49;;;;;;;5.93;3.30;;;21.80;1.00;;;;;;4961405;28;20354;-94
2022/09/13 00:58:21;;;;;;;5.63;3.47;;;21.80;1.00;;;;;;4955497;28;20283;-92
2022/09/13 01:00:47;;;;;;;6.60;3.50;;;21.80;1.00;;;;;;4961268;28;20255;-92
2022/09/13 01:03:15;;;;;;;5.87;3.47;;;21.80;1.00;;;;;;4946380;28;20195;-92
2022/09/13 01:05:47;;;;;;;6.33;3.70;;;21.80;1.00;;;;;;4979722;28;20179;-92
2022/09/13 01:08:21;;;;;;;4.87;3.33;;;21.90;1.00;;;;;;4960881;28;20192;-92
2022/09/13 01:10:51;;;;;;;6.23;3.37;;;22.00;1.00;;;;;;4961223;28;20272;-91
2022/09/13 01:13:20;;;;;;;6.43;3.80;;;22.00;1.00;;;;;;4945117;28;20224;-92
2022/09/13 01:15:47;;;;;;;8.13;3.90;;;22.00;1.00;;;;;;4960638;28;20214;-92
2022/09/13 01:18:13;;;;;;;5.43;4.00;;;21.80;1.00;;;;;;4960882;28;20681;-91
2022/09/13 01:21:08;;;;;;;5.60;3.70;;;21.90;1.00;;;;;;4945621;28;20220;-92
2022/09/13 01:23:37;;;;;;;6.17;3.40;;;22.00;1.00;;;;;;4961106;28;20181;-93
2022/09/13 01:26:12;;;;;;;6.03;3.67;;;22.00;1.00;;;;;;4961023;28;20185;-92
2022/09/13 01:28:46;;;;;;;4.47;3.20;;;22.10;1.00;;;;;;4963727;28;20186;-91
2022/09/13 01:31:28;;;;;;;6.10;3.47;;;22.10;1.00;;;;;;4966615;28;20194;-92
2022/09/13 01:34:03;;;;;;;9.37;3.60;;;22.00;1.00;;;;;;4961405;28;20271;-91
2022/09/13 01:36:38;;;;;;;6.67;3.33;;;22.10;1.00;;;;;;4961427;28;20208;-92
2022/09/13 01:39:07;;;;;;;5.40;3.37;;;22.10;1.00;;;;;;4959892;28;20645;-92
2022/09/13 01:41:53;;;;;;;7.20;3.10;;;22.10;1.00;;;;;;4961599;28;20203;-92
2022/09/13 01:44:31;;;;;;;8.20;2.90;;;22.10;1.00;;;;;;4962757;28;20191;-92
2022/09/13 01:47:05;;;;;;;5.77;3.00;;;22.10;1.00;;;;;;4976199;28;20205;-94
2022/09/13 01:49:38;;;;;;;5.13;2.70;;;22.00;1.00;;;;;;4983493;28;20158;-92
2022/09/13 01:52:40;;;;;;;5.37;3.07;;;22.00;1.00;;;;;;4983445;28;20204;-91
2022/09/13 01:55:31;;;;;;;5.43;2.80;;;21.90;1.00;;;;;;4984027;28;20220;-90
2022/09/13 01:58:27;;;;;;;4.43;2.80;;;21.90;1.00;;;;;;4983926;28;20181;-92
2022/09/13 02:01:38;;;;;;;5.47;2.93;;;22.00;1.00;;;;;;4999492;28;20193;-91
2022/09/13 02:04:27;;;;;;;6.87;3.00;;;22.10;1.00;;;;;;4947547;28;20211;-90
2022/09/13 02:07:13;;;;;;;3.83;2.73;;;22.10;1.00;;;;;;4960279;28;20209;-92
2022/09/13 02:09:43;;;;;;;3.03;2.47;;;21.90;1.00;;;;;;4968055;28;20199;-90
2022/09/13 02:12:23;;;;;;;4.27;3.10;;;21.70;1.00;;;;;;4983675;28;20176;-91
2022/09/13 02:15:15;;;;;;;4.60;2.87;;;21.60;1.00;;;;;;4983700;28;20188;-92
2022/09/13 02:17:53;;;;;;;4.97;3.00;;;21.70;1.00;;;;;;5008308;28;20271;-94
2022/09/13 02:20:30;;;;;;;3.83;2.80;;;21.80;1.00;;;;;;4944866;28;20304;-93
2022/09/13 02:23:01;;;;;;;3.50;2.40;;;21.80;1.00;;;;;;4977150;28;20241;-94
2022/09/13 02:25:29;;;;;;;4.73;2.70;;;21.80;1.00;;;;;;4949862;28;20215;-93
2022/09/13 02:28:00;;;;;;;6.53;2.73;;;21.80;1.00;;;;;;4999866;28;20220;-92
2022/09/13 02:30:30;;;;;;;4.47;2.33;;;21.80;1.00;;;;;;4999974;28;20194;-91
2022/09/13 02:33:15;;;;;;;4.37;2.70;;;21.50;1.00;;;;;;4999861;28;20296;-91
2022/09/13 02:35:51;;;;;;;5.00;2.37;;;21.50;1.00;;;;;;4978564;28;20180;-91
2022/09/13 02:38:22;;;;;;;3.83;2.17;;;21.40;1.00;;;;;;4996303;28;20179;-92
2022/09/13 02:41:20;;;;;;;6.10;2.73;;;21.40;1.00;;;;;;4970452;28;20185;-93
2022/09/13 02:44:12;;;;;;;4.40;2.33;;;21.50;1.00;;;;;;4978461;28;20180;-92
2022/09/13 02:46:55;;;;;;;6.67;2.83;;;21.70;1.00;;;;;;4959412;28;20222;-92
2022/09/13 02:49:50;;;;;;;4.97;2.50;;;21.50;1.00;;;;;;4958958;28;20179;-92
2022/09/13 02:52:36;;;;;;;4.10;2.43;;;21.40;1.00;;;;;;4975231;28;20192;-91
2022/09/13 02:55:34;;;;;;;5.30;2.87;;;21.50;1.00;;;;;;4959336;28;20189;-91
2022/09/13 02:58:09;;;;;;;5.70;2.80;;;21.20;1.00;;;;;;4877625;28;20337;-91
2022/09/13 03:00:35;;;;;;;4.03;2.93;;;21.00;1.00;;;;;;4976898;28;20188;-92
2022/09/13 03:03:08;;;;;;;4.30;2.70;;;20.80;1.00;;;;;;4959328;28;20183;-91
2022/09/13 03:05:34;;;;;;;3.60;2.47;;;20.90;1.00;;;;;;4959424;28;20703;-91
2022/09/13 03:08:00;;;;;;;6.47;3.03;;;21.00;1.00;;;;;;4958899;28;20189;-91
2022/09/13 03:10:35;;;;;;;4.67;2.20;;;21.00;1.00;;;;;;4958230;28;20196;-92
2022/09/13 03:13:34;;;;;;;5.47;2.80;;;21.20;1.00;;;;;;4959216;28;20207;-91
2022/09/13 03:16:48;;;;;;;6.43;2.83;;;21.20;1.00;;;;;;4975925;28;20653;-91
2022/09/13 03:19:24;;;;;;;4.97;2.80;;;21.20;1.00;;;;;;4923109;28;20196;-94
2022/09/13 03:22:14;;;;;;;4.60;2.73;;;21.30;1.00;;;;;;4960380;28;20183;-94
2022/09/13 03:25:06;;;;;;;5.90;3.10;;;21.20;1.00;;;;;;4960093;28;20274;-91
2022/09/13 03:28:00;;;;;;;4.13;2.57;;;21.00;1.00;;;;;;4960372;28;20188;-91
2022/09/13 03:30:26;;;;;;;4.60;2.97;;;20.80;1.00;;;;;;4959727;28;20277;-93
2022/09/13 03:33:22;;;;;;;4.63;2.80;;;20.70;1.00;;;;;;4961671;28;20251;-93
2022/09/13 03:35:53;;;;;;;5.07;3.00;;;20.80;1.00;;;;;;4961713;28;20633;-94
2022/09/13 03:38:28;;;;;;;5.77;2.77;;;20.70;1.00;;;;;;4961370;28;20188;-92
2022/09/13 03:41:23;;;;;;;5.07;2.93;;;20.70;2.10;;;;;;4961802;28;20185;-90
2022/09/13 03:43:54;;;;;;;4.63;3.00;;;20.70;3.10;;;;;;4959494;28;20198;-91
2022/09/13 03:46:28;;;;;;;5.47;2.87;;;20.70;3.90;;;;;;4962400;28;20183;-90
2022/09/13 03:48:55;;;;;;;6.23;3.10;;;20.70;5.90;;;;;;4962693;28;20193;-94
2022/09/13 03:51:21;;;;;;;5.33;2.90;;;20.90;4.20;;;;;;4963951;28;20196;-93
2022/09/13 03:53:55;;;;;;;8.20;3.23;;;20.90;3.50;;;;;;4961891;28;20219;-93
2022/09/13 03:56:21;;;;;;;4.60;2.77;;;21.00;3.10;;;;;;4961833;28;20183;-92
2022/09/13 03:58:48;;;;;;;4.47;2.90;;;21.00;2.00;;;;;;4962089;28;20228;-94
2022/09/13 04:01:18;;;;;;;9.83;3.40;;;21.00;1.00;;;;;;4965541;28;20243;-93
2022/09/13 04:03:44;;;;;;;5.40;3.07;;;21.00;1.70;;;;;;4969967;28;20191;-92
2022/09/13 04:06:09;;;;;;;4.57;3.27;;;21.00;1.00;;;;;;4972815;28;20188;-92
2022/09/13 04:08:35;;;;;;;4.93;2.80;;;21.00;1.00;;;;;;4971915;28;20188;-91
2022/09/13 04:11:01;;;;;;;4.10;3.20;;;20.90;1.00;;;;;;4980512;28;20183;-90
2022/09/13 04:13:27;;;;;;;7.07;3.67;;;20.90;1.00;;;;;;4979138;28;20243;-92
2022/09/13 04:15:53;;;;;;;5.30;3.20;;;20.80;1.60;;;;;;4975520;28;20192;-92
2022/09/13 04:18:19;;;;;;;5.53;3.20;;;20.70;3.80;;;;;;4971758;28;20653;-93
2022/09/13 04:20:56;;;;;;;6.03;3.17;;;20.80;1.30;;;;;;4969965;28;20216;-93
2022/09/13 04:23:23;;;;;;;4.93;3.23;;;20.90;1.00;;;;;;4973468;28;20189;-92
2022/09/13 04:25:50;;;;;;;5.47;3.63;;;21.10;1.00;;;;;;4974421;28;20245;-93
2022/09/13 04:28:17;;;;;;;5.13;3.20;;;21.10;1.00;;;;;;4991387;28;20198;-90
2022/09/13 04:30:45;;;;;;;6.57;3.47;;;21.20;1.00;;;;;;4974746;28;20192;-90
2022/09/13 04:33:11;;;;;;;5.57;3.93;;;21.40;1.00;;;;;;4971736;28;20239;-91
2022/09/13 04:35:38;;;;;;;7.03;4.67;;;21.40;1.00;;;;;;4972258;28;20214;-91
2022/09/13 04:38:04;;;;;;;6.37;3.90;;;21.40;1.00;;;;;;4976866;28;20195;-89
2022/09/13 04:40:30;;;;;;;6.60;3.57;;;21.50;1.00;;;;;;4984752;28;20185;-90
2022/09/13 04:42:56;;;;;;;6.20;3.57;;;21.60;1.00;;;;;;4967855;28;20212;-91
2022/09/13 04:45:23;;;;;;;9.03;3.90;;;21.60;1.00;;;;;;4983055;28;20239;-91
2022/09/13 04:47:55;;;;;;;7.40;4.27;;;21.50;1.00;;;;;;4974527;28;20180;-91
2022/09/13 04:50:22;;;;;;;7.33;4.10;;;21.60;1.00;;;;;;4990764;28;20191;-92
2022/09/13 04:52:48;;;;;;;7.90;3.60;;;21.40;1.00;;;;;;4978642;28;20227;-92
2022/09/13 04:55:14;;;;;;;6.53;3.50;;;21.30;1.00;;;;;;4979283;28;20256;-91
2022/09/13 04:57:40;;;;;;;6.17;3.60;;;21.10;1.00;;;;;;4980061;28;20212;-90
2022/09/13 05:00:07;;;;;;;6.40;3.83;;;21.10;1.00;;;;;;5000765;28;20200;-88
2022/09/13 05:02:33;;;;;;;5.73;3.53;;;21.20;1.00;;;;;;4983548;28;20183;-90
2022/09/13 05:04:58;;;;;;;10.03;4.00;;;21.20;1.00;;;;;;4984017;28;20184;-91
2022/09/13 05:07:26;;;;;;;5.70;3.63;;;21.30;1.00;;;;;;4973931;28;20184;-92
2022/09/13 05:09:52;;;;;;;10.00;4.13;;;21.30;1.00;;;;;;4976485;28;20211;-90
2022/09/13 05:12:17;;;;;;;7.47;3.87;;;21.20;1.00;;;;;;4990103;28;20176;-90
2022/09/13 05:14:43;;;;;;;8.53;3.93;;;21.00;3.20;;;;;;4968769;28;20224;-92
2022/09/13 05:17:09;;;;;;;8.40;4.00;;;20.90;7.60;;;;;;4972533;28;20194;-92
2022/09/13 05:19:34;;;;;;;8.50;4.33;;;20.80;11.60;;;;;;4970083;28;20198;-90
2022/09/13 05:22:02;;;;;;;8.80;4.20;;;20.70;15.50;;;;;;4965315;28;20656;-91
2022/09/13 05:24:28;;;;;;;6.07;3.60;;;20.70;16.70;;;;;;4976043;28;20240;-89
2022/09/13 05:26:57;;;;;;;8.27;3.77;;;20.70;18.50;;;;;;4977591;28;20195;-91
2022/09/13 05:29:22;;;;;;;7.40;4.13;;;20.70;19.20;;;;;;4979262;28;20198;-92
2022/09/13 05:31:48;;;;;;;7.47;3.97;;;20.90;16.30;;;;;;4980255;28;20181;-94
2022/09/13 05:34:18;;;;;;;6.60;3.93;;;20.80;15.50;;;;;;4994627;28;20727;-91
2022/09/13 05:36:50;;;;;;;11.07;4.30;;;21.00;17.10;;;;;;4979535;28;20194;-93
2022/09/13 05:39:16;;;;;;;10.90;4.20;;;20.80;18.30;;;;;;4960103;28;20196;-94
2022/09/13 05:41:48;;;;;;;8.80;3.90;;;20.90;18.30;;;;;;4997072;28;20188;-91
2022/09/13 05:44:13;;;;;;;5.93;3.87;;;20.90;17.90;;;;;;4976793;28;20212;-91
2022/09/13 05:46:41;;;;;;;10.70;3.97;;;21.10;13.80;;;;;;4978856;28;20281;-91
2022/09/13 05:49:06;;;;;;;10.77;4.60;;;21.10;13.20;;;;;;4974003;28;20550;-89
2022/09/13 05:51:32;;;;;;;10.37;4.53;;;21.20;10.60;;;;;;4978671;28;20183;-91
2022/09/13 05:53:59;;;;;;;9.47;4.83;;;21.10;11.20;;;;;;4977485;28;20233;-92
2022/09/13 05:56:27;;;;;;;12.97;4.80;;;21.10;7.00;;;;;;4972759;28;20212;-93
2022/09/13 05:58:56;;;;;;;11.40;5.17;;;21.10;9.20;;;;;;4972320;29;20237;-90
2022/09/13 06:01:25;;;;;;;16.73;4.80;;;20.90;14.40;;;;;;4983270;28;20238;-92
2022/09/13 06:03:54;;;;;;;12.43;4.97;;;20.80;17.90;;;;;;4981285;28;20563;-91
2022/09/13 06:06:20;;;;;;;9.67;4.53;;;20.90;17.70;;;;;;4997998;28;20218;-92
2022/09/13 06:08:46;;;;;;;17.97;4.70;;;21.10;11.80;;;;;;4984975;28;20323;-93
2022/09/13 06:11:14;;;;;;;18.10;5.33;;;21.20;9.20;;;;;;4963706;28;20190;-93
2022/09/13 06:13:42;;;;;;;11.10;4.70;;;21.30;7.20;;;;;;4981494;28;20218;-94
2022/09/13 06:16:09;;;;;;;9.30;4.53;;;21.30;8.00;;;;;;4980389;23;20223;-93
2022/09/13 06:18:37;;;;;;;9.03;5.03;;;21.30;8.80;;;;;;5001205;28;20276;-93
2022/09/13 06:21:10;;;;;;;8.00;4.87;;;21.40;4.70;;;;;;5016303;28;20191;-95
2022/09/13 06:23:37;;;;;;;14.03;4.73;;;21.30;1.20;;;;;;5017566;28;20188;-91
2022/09/13 06:26:05;;;;;;;10.63;4.20;;;21.30;4.70;;;;;;4999849;28;20187;-95
2022/09/13 06:28:32;;;;;;;9.70;4.50;;;21.30;5.10;;;;;;5001091;28;20177;-93
2022/09/13 06:31:07;;;;;;;7.87;4.27;;;21.30;5.60;;;;;;5000200;28;20198;-92
2022/09/13 06:33:34;;;;;;;9.10;4.50;;;21.30;8.10;;;;;;5000836;28;20285;-93
2022/09/13 06:36:01;;;;;;;10.77;4.90;;;21.40;8.60;;;;;;5000684;28;20191;-93
2022/09/13 06:38:27;;;;;;;7.70;4.47;;;21.40;8.00;;;;;;5000602;28;20167;-94
2022/09/13 06:41:22;;;;;;;12.23;4.70;;;21.60;6.90;;;;;;5002038;28;20178;-93
2022/09/13 06:43:56;;;;;;;8.93;4.53;;;21.50;7.50;;;;;;4999880;28;20369;-92
2022/09/13 06:46:22;;;;;;;10.20;4.93;;;21.50;6.40;;;;;;5018521;28;20245;-92
2022/09/13 06:48:48;;;;;;;10.73;4.50;;;21.50;3.50;;;;;;5001129;28;20192;-91
2022/09/13 06:51:17;;;;;;;8.03;4.27;;;21.70;1.40;;;;;;5001839;28;20192;-93
2022/09/13 06:53:47;;;;;;;11.40;4.60;;;21.70;1.00;;;;;;5000229;28;20259;-93
2022/09/13 06:56:42;;;;;;;10.63;4.80;;;21.70;1.00;;;;;;5114443;27;20520;-93
2022/09/13 06:59:09;;;;;;;12.83;5.10;;;21.90;1.00;;;;;;5129348;28;20171;-93
2022/09/13 07:01:42;;;;;;;9.70;4.70;;;21.90;1.00;;;;;;5129926;28;20167;-92
2022/09/13 07:04:14;;;;;;;15.13;4.93;;;22.00;1.00;;;;;;5114964;27;20155;-93
2022/09/13 07:06:42;;;;;;;8.73;4.77;;;22.00;1.00;;;;;;5131455;27;20161;-90
2022/09/13 07:09:18;;;;;;;12.30;5.90;;;21.90;1.00;;;;;;5131468;27;20178;-93
2022/09/13 07:11:45;;;;;;;21.30;7.40;;;22.00;1.00;;;;;;5130821;27;20158;-93
2022/09/13 07:14:21;;;;;;;21.87;7.10;;;22.10;1.00;;;;;;5131444;27;20163;-93
2022/09/13 07:16:48;;;;;;;16.23;6.87;;;22.20;1.00;;;;;;5131053;27;20260;-93
2022/09/13 07:19:17;;;;;;;17.37;5.70;;;22.30;1.00;;;;;;5114295;28;20187;-92
2022/09/13 07:21:52;;;;;;;17.90;6.67;;;22.30;1.00;;;;;;5114312;28;20157;-93
2022/09/13 07:24:18;;;;;;;16.10;5.97;;;22.30;1.00;;;;;;5129075;28;20175;-94
2022/09/13 07:26:48;;;;;;;12.40;5.80;;;22.30;1.00;;;;;;5123774;28;20170;-93
2022/09/13 07:29:22;;;;;;;7.97;5.10;;;22.20;1.00;;;;;;5130846;27;20230;-94
2022/09/13 07:32:07;;;;;;;10.43;5.90;;;22.10;1.00;;;;;;5130788;27;20174;-95
2022/09/13 07:34:41;;;;;;;9.47;5.60;;;22.10;1.00;;;;;;5095569;28;20202;-93
2022/09/13 07:37:13;;;;;;;14.50;6.07;;;22.00;1.00;;;;;;5103892;28;20193;-96
2022/09/13 07:39:39;;;;;;;9.80;5.57;;;22.10;1.00;;;;;;5099706;28;20178;-94
2022/09/13 07:42:05;;;;;;;12.80;5.33;;;21.90;1.00;;;;;;5096630;28;20623;-96
2022/09/13 07:44:30;;;;;;;14.53;6.30;;;21.90;1.00;;;;;;5094396;28;20266;-96
2022/09/13 07:46:56;;;;;;;14.60;6.77;;;21.70;2.20;;;;;;5072956;28;20213;-95
2022/09/13 07:49:23;;;;;;;10.73;5.90;;;21.70;7.20;;;;;;5093438;28;20239;-95
2022/09/13 07:51:51;;;;;;;12.43;6.37;;;21.80;9.60;;;;;;5092933;28;20183;-96
2022/09/13 07:54:18;;;;;;;13.63;6.30;;;21.90;8.20;;;;;;5088864;28;20182;-93
2022/09/13 07:56:44;;;;;;;12.00;5.83;;;21.80;7.60;;;;;;5078820;28;20200;-94
2022/09/13 07:59:13;;;;;;;10.03;5.50;;;22.00;1.00;;;;;;5078486;28;20215;-96
2022/09/13 08:01:50;;;;;;;10.87;4.37;;;22.10;1.00;;;;;;5077300;28;20185;-96
2022/09/13 08:04:22;;;;;;;8.50;4.80;;;21.90;1.00;;;;;;5062163;28;20178;-96
2022/09/13 08:06:48;;;;;;;9.17;4.77;;;22.00;1.00;;;;;;5053730;28;20185;-94
2022/09/13 08:09:18;;;;;;;11.67;5.13;;;22.10;1.00;;;;;;5062573;28;20180;-96
2022/09/13 08:11:50;;;;;;;10.40;4.43;;;22.30;1.00;;;;;;5047547;28;20185;-94
2022/09/13 08:14:18;;;;;;;10.67;4.60;;;22.50;1.00;;;;;;5062211;28;20178;-96
2022/09/13 08:16:44;;;;;;;9.43;4.50;;;22.60;1.00;;;;;;5061100;28;20208;-93
2022/09/13 08:19:13;;;;;;;7.53;4.20;;;22.60;1.00;;;;;;5062036;28;20186;-96
2022/09/13 08:21:41;;;;;;;9.13;4.50;;;22.50;1.00;;;;;;5061759;28;20209;-96
2022/09/13 08:24:25;;;;;;;;;;;;;;;;;;;;;
2022/09/13 08:27:06;;;;;;;;;;;;;;;;;;;;;
2022/09/13 08:29:33;;;;;;;8.30;5.10;;;22.70;1.00;;;;;;5066819;28;20246;-93
2022/09/13 08:31:59;;;;;;;7.07;4.77;;;22.90;1.00;;;;;;5061172;28;20238;-91
2022/09/13 08:34:26;;;;;;;6.67;4.23;;;22.90;1.00;;;;;;5044831;28;20199;-92
2022/09/13 08:36:51;;;;;;;6.57;3.90;;;23.00;1.00;;;;;;5074920;28;20244;-92
2022/09/13 08:39:18;;;;;;;6.57;4.33;;;22.90;1.00;;;;;;5062552;28;20188;-91
2022/09/13 08:42:23;;;;;;;6.43;4.00;;;23.00;1.00;;;;;;5064097;28;20253;-93
2022/09/13 08:44:53;;;;;;;6.53;3.77;;;23.10;1.00;;;;;;5061007;28;20650;-93
2022/09/13 08:47:37;;;;;;;8.60;4.23;;;23.20;1.00;;;;;;5063310;28;20663;-93
2022/09/13 08:50:30;;;;;;;8.23;4.13;;;23.30;1.00;;;;;;5063260;28;20176;-93
2022/09/13 08:53:14;;;;;;;9.53;3.90;;;23.40;1.00;;;;;;5061491;28;20176;-93
2022/09/13 08:55:57;;;;;;;7.23;4.43;;;23.50;1.00;;;;;;5066326;28;20675;-94
2022/09/13 08:58:43;;;;;;;9.90;4.90;;;23.70;1.00;;;;;;5072963;28;20193;-92
2022/09/13 09:01:32;;;;;;;8.67;4.77;;;23.80;1.00;;;;;;5061162;28;20180;-94
2022/09/13 09:04:28;;;;;;;8.33;4.57;;;23.90;1.00;;;;;;5060118;28;20185;-93
2022/09/13 09:07:26;;;;;;;10.10;4.97;;;24.00;1.00;;;;;;5060367;28;20191;-93
2022/09/13 09:10:00;;;;;;;10.20;5.50;;;24.10;1.00;;;;;;5056248;28;20245;-92
2022/09/13 09:13:07;;;;;;;13.80;5.40;;;24.10;1.00;;;;;;5066983;28;20199;-94
2022/09/13 09:15:48;;;;;;;8.97;5.60;;;24.00;1.00;;;;;;5070216;28;20212;-91
2022/09/13 09:18:22;;;;;;;10.63;5.47;;;23.80;1.00;;;;;;5068861;28;20176;-93
2022/09/13 09:20:55;;;;;;;9.10;5.67;;;23.70;1.00;;;;;;5067367;28;20263;-92
2022/09/13 09:23:28;;;;;;;10.67;5.80;;;23.70;1.00;;;;;;5081786;28;20175;-93
2022/09/13 09:26:17;;;;;;;12.73;5.87;;;23.70;1.00;;;;;;5083292;28;20195;-94
2022/09/13 09:28:49;;;;;;;12.00;5.60;;;23.50;1.00;;;;;;5081561;28;20183;-93
2022/09/13 09:35:44;;;;;;;15.40;6.17;;;23.40;1.00;;;;;;5079396;28;20207;-94
2022/09/13 09:38:44;;;;;;;12.63;5.93;;;23.60;1.00;;;;;;5089757;28;20275;-96
2022/09/13 09:41:39;;;;;;;10.77;6.33;;;23.80;1.00;;;;;;5090114;28;20160;-96
2022/09/13 09:44:59;;;;;;;10.67;6.97;;;24.00;1.00;;;;;;5086725;28;20249;-96
2022/09/13 09:48:39;;;;;;;;;;;;;;;;;;;;;
2022/09/13 09:51:33;;;;;;;10.73;5.77;;;24.30;1.00;;;;;;5095374;28;20191;-95
2022/09/13 09:54:25;;;;;;;10.73;6.03;;;24.10;1.00;;;;;;5095838;28;20206;-96
2022/09/13 09:57:56;;;;;;;;;;;;;;;;;;;;;
2022/09/13 10:01:30;;;;;;;11.53;6.20;;;24.10;1.00;;;;;;5028015;28;20213;-93
2022/09/13 10:04:13;;;;;;;16.60;6.20;;;24.20;1.00;;;;;;5012652;28;20198;-95
2022/09/13 10:07:49;;;;;;;9.37;5.63;;;24.40;1.00;;;;;;5012707;28;20616;-95
2022/09/13 10:11:01;;;;;;;11.90;5.10;;;24.30;1.00;;;;;;5027548;28;20220;-96
2022/09/13 10:14:09;;;;;;;10.33;5.23;;;24.30;1.00;;;;;;5012602;28;20178;-95
2022/09/13 10:16:44;;;;;;;10.00;5.03;;;24.50;1.00;;;;;;5017089;28;20201;-96
2022/09/13 10:23:14;;;;;;;10.50;4.70;;;24.70;1.00;;;;;;5035286;28;20166;-95
2022/09/13 10:26:22;;;;;;;13.50;4.97;;;24.90;1.00;;;;;;5011089;28;20186;-95
2022/09/13 10:29:29;;;;;;;11.73;4.47;;;25.20;1.00;;;;;;5007300;28;20258;-96
2022/09/13 10:32:23;;;;;;;9.77;4.50;;;25.60;1.00;;;;;;5055367;28;20192;-96
2022/09/13 10:35:24;;;;;;;14.33;4.23;;;25.70;1.00;;;;;;5085920;28;20259;-96
2022/09/13 10:37:54;;;;;;;10.30;4.53;;;25.80;1.00;;;;;;5096999;28;20175;-95
2022/09/13 10:40:39;;;;;;;11.47;4.63;;;26.00;1.00;;;;;;5079472;28;20177;-95
2022/09/13 10:46:40;;;;;;;9.17;4.93;;;25.90;1.00;;;;;;5086928;28;20183;-95
2022/09/13 10:56:24;;;;;;;8.30;4.00;;;25.30;1.00;;;;;;4957356;28;20292;-96
2022/09/13 10:59:39;;;;;;;9.00;4.27;;;25.40;1.00;;;;;;5085878;28;20207;-96
2022/09/13 11:03:08;;;;;;;8.70;4.60;;;25.70;1.00;;;;;;5083678;28;20173;-96
2022/09/13 11:06:29;;;;;;;13.33;4.60;;;25.80;99.90;;;;;;5084959;28;20178;-96
2022/09/13 11:10:05;;;;;;;14.30;5.23;;;26.00;99.90;;;;;;5085727;28;20180;-96
2022/09/13 11:12:54;;;;;;;13.27;5.47;;;25.90;99.90;;;;;;5096939;28;20187;-95
2022/09/13 11:16:29;;;;;;;;;;;;;;;;;;;;;
2022/09/13 11:23:35;;;;;;;9.37;4.93;;;25.60;99.90;;;;;;5093650;28;20194;-93
2022/09/13 11:26:48;;;;;;;11.30;4.90;;;25.50;99.90;;;;;;5096704;28;20204;-94
2022/09/13 11:30:28;;;;;;;;;;;;;;;;;;;;;
2022/09/13 11:33:37;;;;;;;9.63;5.00;;;25.60;1.00;;;;;;5016820;28;20208;-94
2022/09/13 11:36:45;;;;;;;8.67;5.03;;;25.40;1.00;;;;;;5095482;28;20242;-96
2022/09/13 11:40:13;;;;;;;;;;;;;;;;;;;;;
2022/09/13 11:43:26;;;;;;;6.30;4.47;;;25.20;1.00;;;;;;5099825;28;20167;-95
2022/09/13 11:46:58;;;;;;;;;;;;;;;;;;;;;
2022/09/13 11:49:52;;;;;;;7.80;4.97;;;25.40;1.00;;;;;;5084500;28;20212;-95
2022/09/13 11:53:01;;;;;;;10.10;5.40;;;25.30;1.00;;;;;;5078380;28;20171;-95
2022/09/13 11:56:33;;;;;;;10.90;5.80;;;25.50;1.00;;;;;;5079723;28;20237;-95
2022/09/13 12:06:28;;;;;;;9.47;4.73;;;26.10;99.90;;;;;;5067898;28;20185;-95
2022/09/13 12:09:25;;;;;;;13.50;5.83;;;26.00;1.00;;;;;;5070745;28;20173;-96
2022/09/13 12:13:01;;;;;;;10.10;4.27;;;26.10;1.00;;;;;;5069268;28;20165;-96
2022/09/13 12:19:14;;;;;;;10.33;5.13;;;26.00;1.00;;;;;;5070514;28;20739;-96
2022/09/13 12:21:49;;;;;;;9.87;5.27;;;25.70;1.00;;;;;;5045052;28;20272;-96
2022/09/13 12:25:02;;;;;;;10.23;4.60;;;25.40;1.00;;;;;;5049969;28;20256;-96
2022/09/13 12:28:05;;;;;;;9.87;4.20;;;25.30;1.00;;;;;;5062505;28;20594;-96
2022/09/13 12:34:18;;;;;;;6.93;4.67;;;25.50;1.00;;;;;;5043684;28;20180;-96
2022/09/13 12:37:23;;;;;;;8.10;5.07;;;25.30;1.00;;;;;;5061354;28;20280;-96
2022/09/13 12:41:05;;;;;;;12.00;4.90;;;25.10;1.00;;;;;;5066553;28;20723;-96
2022/09/13 12:47:54;;;;;;;;;;;;;;;;;;;;;
2022/09/13 12:51:37;;;;;;;5.90;3.70;;;24.70;1.00;;;;;;5083779;28;20203;-96
2022/09/13 12:55:02;;;;;;;8.57;3.37;;;24.60;1.00;;;;;;5084152;28;20523;-96
2022/09/13 12:58:43;;;;;;;6.53;3.70;;;24.60;1.00;;;;;;5080822;28;20188;-95
2022/09/13 13:02:25;;;;;;;8.93;4.23;;;24.40;1.00;;;;;;5066125;28;20199;-94
2022/09/13 13:05:00;;;;;;;7.33;4.50;;;24.30;1.00;;;;;;5060206;28;20168;-94
2022/09/13 13:07:31;;;;;;;6.40;4.30;;;24.30;1.00;;;;;;5079763;28;20187;-96
2022/09/13 13:09:57;;;;;;;9.23;4.50;;;24.30;1.00;;;;;;5074716;28;20218;-95
2022/09/13 13:13:20;;;;;;;6.00;4.00;;;24.20;1.00;;;;;;5086897;28;20184;-94
2022/09/13 13:16:31;;;;;;;6.77;4.67;;;24.10;1.00;;;;;;5081474;28;20269;-96
2022/09/13 13:19:42;;;;;;;9.83;4.40;;;24.10;1.00;;;;;;5083642;28;20175;-95
2022/09/13 13:22:58;;;;;;;9.50;4.90;;;24.00;1.00;;;;;;5089911;28;20157;-94
2022/09/13 13:25:56;;;;;;;9.63;4.77;;;24.00;1.00;;;;;;5097359;28;20164;-94
2022/09/13 13:28:44;;;;;;;7.60;5.23;;;24.10;1.00;;;;;;5083530;28;20555;-94
2022/09/13 13:31:42;;;;;;;11.23;5.00;;;24.20;1.00;;;;;;5093638;28;20238;-96
2022/09/13 13:34:15;;;;;;;6.70;4.80;;;24.30;1.00;;;;;;5084461;28;20172;-96
2022/09/13 13:37:23;;;;;;;9.50;5.43;;;24.40;1.00;;;;;;5087180;28;20188;-96
2022/09/13 13:40:28;;;;;;;8.53;4.80;;;24.50;1.00;;;;;;5085232;28;20200;-96
2022/09/13 13:43:44;;;;;;;6.47;4.47;;;24.70;1.00;;;;;;5085673;28;20180;-95
2022/09/13 13:46:45;;;;;;;11.30;5.30;;;25.00;1.00;;;;;;5082287;28;20233;-95
2022/09/13 13:50:25;;;;;;;10.00;5.17;;;25.20;1.00;;;;;;5072027;28;20190;-96
2022/09/13 13:53:34;;;;;;;8.07;4.53;;;25.40;1.00;;;;;;5082745;28;20233;-96
2022/09/13 13:56:58;;;;;;;9.37;6.33;;;25.50;1.00;;;;;;5074114;28;20203;-96
2022/09/13 14:03:43;;;;;;;9.30;5.20;;;25.60;1.00;;;;;;5083204;28;20195;-95
2022/09/13 14:14:07;;;;;;;10.07;5.20;;;25.80;1.00;;;;;;5074590;28;20209;-95
2022/09/13 14:26:09;;;;;;;8.47;4.93;;;25.50;1.00;;;;;;5094419;28;20187;-96
2022/09/13 14:29:28;;;;;;;11.47;5.07;;;25.40;1.00;;;;;;5090823;28;20255;-95
2022/09/13 14:32:34;;;;;;;9.23;4.43;;;25.00;1.00;;;;;;5106331;28;20194;-96
2022/09/13 14:42:22;;;;;;;8.93;5.30;;;24.90;1.00;;;;;;5901796;22;20231;-95
2022/09/13 14:45:31;;;;;;;10.87;5.80;;;24.50;1.00;;;;;;5033890;28;20194;-95
2022/09/13 14:48:52;;;;;;;;;;;;;;;;;;;;;
2022/09/13 14:52:04;;;;;;;10.17;6.83;;;23.80;1.00;;;;;;5091512;28;20194;-95
2022/09/13 14:54:58;;;;;;;10.80;7.27;;;23.80;1.00;;;;;;5089007;28;20248;-95
2022/09/13 14:57:38;;;;;;;9.80;7.10;;;23.80;1.00;;;;;;5090294;28;20275;-95
2022/09/13 15:00:29;;;;;;;10.30;6.60;;;23.70;1.00;;;;;;5088430;28;20624;-95
2022/09/13 15:03:50;;;;;;;8.00;6.00;;;23.70;1.00;;;;;;5087013;28;20186;-96
2022/09/13 15:07:07;;;;;;;;;;;;;;;;;;;;;
2022/09/13 15:10:03;;;;;;;8.30;6.03;;;23.70;1.00;;;;;;5082116;28;20206;-95
2022/09/13 15:13:41;;;;;;;11.40;6.27;;;23.50;1.00;;;;;;5095689;28;20189;-94
2022/09/13 15:17:12;;;;;;;7.57;5.37;;;23.40;1.00;;;;;;5087167;28;20221;-95
2022/09/13 15:20:04;;;;;;;7.57;5.60;;;23.40;1.00;;;;;;5091279;28;20236;-95
2022/09/13 15:22:52;;;;;;;;;;;;;;;;;;;;;
2022/09/13 15:25:51;;;;;;;9.57;6.27;;;23.20;1.00;;;;;;5082116;28;20251;-95
2022/09/13 15:29:27;;;;;;;9.30;6.53;;;23.20;1.00;;;;;;5074255;28;20180;-96
2022/09/13 15:36:26;;;;;;;8.97;7.60;;;23.40;2.00;;;;;;4937218;29;20354;-95
2022/09/13 15:39:36;;;;;;;;;;;;;;;;;;;;;
2022/09/13 15:49:42;;;;;;;11.90;8.87;;;23.60;15.60;;;;;;4980099;28;20171;-93
2022/09/13 15:52:34;;;;;;;12.17;9.83;;;23.50;16.70;;;;;;5038043;28;20212;-95